sensor_id;sensor_type;location;lat;lon;timestamp;P1;durP1;ratioP1;P2;durP2;ratioP2
21611;SDS011;47005;52.292;13.452;2023-05-10T00:00:33;6.30;;;4.23;;
21611;SDS011;47005;52.292;13.452;2023-05-10T00:02:58;7.73;;;4.30;;
21611;SDS011;47005;52.292;13.452;2023-05-10T00:05:24;6.30;;;4.23;;
21611;SDS011;47005;52.292;13.452;2023-05-10T00:07:50;5.43;;;4.07;;
21611;SDS011;47005;52.292;13.452;2023-05-10T00:10:15;7.60;;;4.77;;
21611;SDS011;47005;52.292;13.452;2023-05-10T00:12:41;9.90;;;4.83;;
21611;SDS011;47005;52.292;13.452;2023-05-10T00:15:07;6.87;;;4.70;;
21611;SDS011;47005;52.292;13.452;2023-05-10T00:17:33;9.77;;;4.33;;
21611;SDS011;47005;52.292;13.452;2023-05-10T00:19:59;5.83;;;3.80;;
21611;SDS011;47005;52.292;13.452;2023-05-10T00:22:25;10.33;;;4.73;;
21611;SDS011;47005;52.292;13.452;2023-05-10T00:24:51;6.93;;;4.50;;
21611;SDS011;47005;52.292;13.452;2023-05-10T00:27:16;6.27;;;4.10;;
21611;SDS011;47005;52.292;13.452;2023-05-10T00:29:42;7.57;;;4.00;;
21611;SDS011;47005;52.292;13.452;2023-05-10T00:32:08;7.20;;;4.60;;
21611;SDS011;47005;52.292;13.452;2023-05-10T00:34:33;5.77;;;4.53;;
21611;SDS011;47005;52.292;13.452;2023-05-10T00:36:59;5.73;;;3.63;;
21611;SDS011;47005;52.292;13.452;2023-05-10T00:39:25;5.80;;;3.80;;
21611;SDS011;47005;52.292;13.452;2023-05-10T00:41:51;7.87;;;4.73;;
21611;SDS011;47005;52.292;13.452;2023-05-10T00:44:17;7.53;;;4.10;;
21611;SDS011;47005;52.292;13.452;2023-05-10T00:46:43;7.37;;;3.80;;
21611;SDS011;47005;52.292;13.452;2023-05-10T00:49:09;7.47;;;4.30;;
21611;SDS011;47005;52.292;13.452;2023-05-10T00:51:35;6.43;;;4.57;;
21611;SDS011;47005;52.292;13.452;2023-05-10T00:54:01;10.63;;;4.43;;
21611;SDS011;47005;52.292;13.452;2023-05-10T00:56:27;6.07;;;4.00;;
21611;SDS011;47005;52.292;13.452;2023-05-10T00:58:54;7.27;;;4.70;;
21611;SDS011;47005;52.292;13.452;2023-05-10T01:01:21;5.17;;;4.03;;
21611;SDS011;47005;52.292;13.452;2023-05-10T01:03:47;7.77;;;4.53;;
21611;SDS011;47005;52.292;13.452;2023-05-10T01:06:13;5.90;;;4.40;;
21611;SDS011;47005;52.292;13.452;2023-05-10T01:08:39;10.80;;;4.53;;
21611;SDS011;47005;52.292;13.452;2023-05-10T01:11:05;6.97;;;4.37;;
21611;SDS011;47005;52.292;13.452;2023-05-10T01:13:38;14.77;;;4.50;;
21611;SDS011;47005;52.292;13.452;2023-05-10T01:16:06;6.33;;;4.33;;
21611;SDS011;47005;52.292;13.452;2023-05-10T01:18:36;7.47;;;4.83;;
21611;SDS011;47005;52.292;13.452;2023-05-10T01:34:57;8.60;;;5.17;;
21611;SDS011;47005;52.292;13.452;2023-05-10T01:37:33;7.47;;;4.37;;
21611;SDS011;47005;52.292;13.452;2023-05-10T01:40:13;9.30;;;5.30;;
21611;SDS011;47005;52.292;13.452;2023-05-10T01:43:00;8.90;;;4.77;;
21611;SDS011;47005;52.292;13.452;2023-05-10T01:45:32;7.43;;;4.70;;
21611;SDS011;47005;52.292;13.452;2023-05-10T01:48:06;7.67;;;5.00;;
21611;SDS011;47005;52.292;13.452;2023-05-10T01:50:36;12.27;;;5.40;;
21611;SDS011;47005;52.292;13.452;2023-05-10T01:53:06;7.87;;;5.13;;
21611;SDS011;47005;52.292;13.452;2023-05-10T01:55:34;8.33;;;4.37;;
21611;SDS011;47005;52.292;13.452;2023-05-10T01:58:09;9.47;;;5.10;;
21611;SDS011;47005;52.292;13.452;2023-05-10T02:00:36;8.93;;;5.03;;
21611;SDS011;47005;52.292;13.452;2023-05-10T02:03:07;9.03;;;5.20;;
21611;SDS011;47005;52.292;13.452;2023-05-10T02:05:35;6.30;;;4.37;;
21611;SDS011;47005;52.292;13.452;2023-05-10T02:08:05;9.77;;;5.30;;
21611;SDS011;47005;52.292;13.452;2023-05-10T02:10:32;5.57;;;4.20;;
21611;SDS011;47005;52.292;13.452;2023-05-10T02:13:00;7.03;;;4.53;;
21611;SDS011;47005;52.292;13.452;2023-05-10T02:15:27;6.53;;;4.67;;
21611;SDS011;47005;52.292;13.452;2023-05-10T02:17:55;7.03;;;4.43;;
21611;SDS011;47005;52.292;13.452;2023-05-10T02:20:22;6.83;;;4.70;;
21611;SDS011;47005;52.292;13.452;2023-05-10T02:22:49;10.70;;;4.60;;
21611;SDS011;47005;52.292;13.452;2023-05-10T02:25:18;7.73;;;4.40;;
21611;SDS011;47005;52.292;13.452;2023-05-10T02:27:45;8.70;;;5.30;;
21611;SDS011;47005;52.292;13.452;2023-05-10T02:30:12;9.10;;;4.83;;
21611;SDS011;47005;52.292;13.452;2023-05-10T02:32:38;10.07;;;5.07;;
21611;SDS011;47005;52.292;13.452;2023-05-10T02:35:05;7.77;;;5.43;;
21611;SDS011;47005;52.292;13.452;2023-05-10T02:37:31;8.77;;;5.40;;
21611;SDS011;47005;52.292;13.452;2023-05-10T02:39:59;8.07;;;4.93;;
21611;SDS011;47005;52.292;13.452;2023-05-10T02:42:27;12.47;;;5.23;;
21611;SDS011;47005;52.292;13.452;2023-05-10T02:44:57;7.87;;;5.47;;
21611;SDS011;47005;52.292;13.452;2023-05-10T02:47:26;7.97;;;4.60;;
21611;SDS011;47005;52.292;13.452;2023-05-10T02:49:52;6.93;;;4.67;;
21611;SDS011;47005;52.292;13.452;2023-05-10T02:52:23;6.53;;;4.40;;
21611;SDS011;47005;52.292;13.452;2023-05-10T02:54:54;8.80;;;5.27;;
21611;SDS011;47005;52.292;13.452;2023-05-10T02:57:28;9.13;;;5.03;;
21611;SDS011;47005;52.292;13.452;2023-05-10T02:59:57;7.17;;;4.67;;
21611;SDS011;47005;52.292;13.452;2023-05-10T03:02:23;7.53;;;4.67;;
21611;SDS011;47005;52.292;13.452;2023-05-10T03:04:49;7.13;;;4.67;;
21611;SDS011;47005;52.292;13.452;2023-05-10T03:07:14;8.13;;;4.77;;
21611;SDS011;47005;52.292;13.452;2023-05-10T03:09:40;6.23;;;4.47;;
21611;SDS011;47005;52.292;13.452;2023-05-10T03:17:52;6.97;;;4.90;;
21611;SDS011;47005;52.292;13.452;2023-05-10T03:20:25;7.67;;;4.97;;
21611;SDS011;47005;52.292;13.452;2023-05-10T03:23:00;6.03;;;4.60;;
21611;SDS011;47005;52.292;13.452;2023-05-10T03:25:48;6.47;;;4.33;;
21611;SDS011;47005;52.292;13.452;2023-05-10T03:28:15;7.13;;;4.70;;
21611;SDS011;47005;52.292;13.452;2023-05-10T03:30:43;7.67;;;4.67;;
21611;SDS011;47005;52.292;13.452;2023-05-10T03:33:09;8.73;;;5.10;;
21611;SDS011;47005;52.292;13.452;2023-05-10T03:35:35;8.23;;;5.03;;
21611;SDS011;47005;52.292;13.452;2023-05-10T03:38:01;11.20;;;4.77;;
21611;SDS011;47005;52.292;13.452;2023-05-10T03:40:27;7.33;;;4.77;;
21611;SDS011;47005;52.292;13.452;2023-05-10T03:42:56;9.93;;;4.33;;
21611;SDS011;47005;52.292;13.452;2023-05-10T03:45:22;8.97;;;4.13;;
21611;SDS011;47005;52.292;13.452;2023-05-10T03:47:47;8.87;;;4.80;;
21611;SDS011;47005;52.292;13.452;2023-05-10T03:50:13;7.67;;;5.07;;
21611;SDS011;47005;52.292;13.452;2023-05-10T03:52:39;8.67;;;5.13;;
21611;SDS011;47005;52.292;13.452;2023-05-10T03:55:05;6.10;;;4.10;;
21611;SDS011;47005;52.292;13.452;2023-05-10T03:57:31;6.90;;;4.43;;
21611;SDS011;47005;52.292;13.452;2023-05-10T03:59:57;7.33;;;4.33;;
21611;SDS011;47005;52.292;13.452;2023-05-10T04:02:23;7.67;;;4.00;;
21611;SDS011;47005;52.292;13.452;2023-05-10T04:04:48;8.67;;;4.73;;
21611;SDS011;47005;52.292;13.452;2023-05-10T04:07:14;18.63;;;4.90;;
21611;SDS011;47005;52.292;13.452;2023-05-10T04:09:40;7.37;;;4.33;;
21611;SDS011;47005;52.292;13.452;2023-05-10T04:12:06;7.30;;;4.77;;
21611;SDS011;47005;52.292;13.452;2023-05-10T04:14:31;8.53;;;4.77;;
21611;SDS011;47005;52.292;13.452;2023-05-10T04:16:57;6.93;;;4.00;;
21611;SDS011;47005;52.292;13.452;2023-05-10T04:19:23;6.27;;;3.90;;
21611;SDS011;47005;52.292;13.452;2023-05-10T04:21:48;6.53;;;3.77;;
21611;SDS011;47005;52.292;13.452;2023-05-10T04:24:14;10.70;;;4.23;;
21611;SDS011;47005;52.292;13.452;2023-05-10T04:26:40;7.57;;;4.43;;
21611;SDS011;47005;52.292;13.452;2023-05-10T04:29:06;8.50;;;4.40;;
21611;SDS011;47005;52.292;13.452;2023-05-10T04:31:31;10.70;;;4.23;;
21611;SDS011;47005;52.292;13.452;2023-05-10T04:33:57;7.37;;;4.33;;
21611;SDS011;47005;52.292;13.452;2023-05-10T04:36:23;7.77;;;4.03;;
21611;SDS011;47005;52.292;13.452;2023-05-10T04:38:48;7.47;;;4.03;;
21611;SDS011;47005;52.292;13.452;2023-05-10T04:41:14;9.50;;;4.20;;
21611;SDS011;47005;52.292;13.452;2023-05-10T04:43:40;7.53;;;4.80;;
21611;SDS011;47005;52.292;13.452;2023-05-10T04:46:05;5.97;;;4.50;;
21611;SDS011;47005;52.292;13.452;2023-05-10T04:48:32;6.93;;;4.03;;
21611;SDS011;47005;52.292;13.452;2023-05-10T04:50:58;8.90;;;4.47;;
21611;SDS011;47005;52.292;13.452;2023-05-10T04:53:24;6.20;;;3.70;;
21611;SDS011;47005;52.292;13.452;2023-05-10T04:55:49;7.03;;;3.77;;
21611;SDS011;47005;52.292;13.452;2023-05-10T04:58:17;6.73;;;4.40;;
21611;SDS011;47005;52.292;13.452;2023-05-10T05:00:43;7.13;;;3.67;;
21611;SDS011;47005;52.292;13.452;2023-05-10T05:03:09;12.07;;;5.47;;
21611;SDS011;47005;52.292;13.452;2023-05-10T05:05:34;10.33;;;3.70;;
21611;SDS011;47005;52.292;13.452;2023-05-10T05:08:00;6.87;;;3.60;;
21611;SDS011;47005;52.292;13.452;2023-05-10T05:10:26;6.37;;;3.50;;
21611;SDS011;47005;52.292;13.452;2023-05-10T05:12:51;5.10;;;3.40;;
21611;SDS011;47005;52.292;13.452;2023-05-10T05:15:17;4.70;;;3.37;;
21611;SDS011;47005;52.292;13.452;2023-05-10T05:17:43;9.03;;;3.97;;
21611;SDS011;47005;52.292;13.452;2023-05-10T05:20:09;5.37;;;3.00;;
21611;SDS011;47005;52.292;13.452;2023-05-10T05:22:38;4.90;;;3.03;;
21611;SDS011;47005;52.292;13.452;2023-05-10T05:25:03;9.70;;;3.40;;
21611;SDS011;47005;52.292;13.452;2023-05-10T05:27:30;6.10;;;3.10;;
21611;SDS011;47005;52.292;13.452;2023-05-10T05:29:56;6.73;;;3.00;;
21611;SDS011;47005;52.292;13.452;2023-05-10T05:32:23;5.13;;;2.70;;
21611;SDS011;47005;52.292;13.452;2023-05-10T05:34:49;4.93;;;3.27;;
21611;SDS011;47005;52.292;13.452;2023-05-10T05:37:15;4.57;;;2.97;;
21611;SDS011;47005;52.292;13.452;2023-05-10T05:39:42;6.03;;;3.77;;
21611;SDS011;47005;52.292;13.452;2023-05-10T05:42:09;13.77;;;3.17;;
21611;SDS011;47005;52.292;13.452;2023-05-10T05:44:35;7.70;;;3.42;;
21611;SDS011;47005;52.292;13.452;2023-05-10T05:47:01;6.40;;;3.67;;
21611;SDS011;47005;52.292;13.452;2023-05-10T05:49:26;8.40;;;2.83;;
21611;SDS011;47005;52.292;13.452;2023-05-10T05:51:52;6.97;;;2.90;;
21611;SDS011;47005;52.292;13.452;2023-05-10T05:54:18;5.80;;;3.00;;
21611;SDS011;47005;52.292;13.452;2023-05-10T05:56:44;5.30;;;3.15;;
21611;SDS011;47005;52.292;13.452;2023-05-10T05:59:10;7.28;;;3.20;;
21611;SDS011;47005;52.292;13.452;2023-05-10T06:01:36;5.57;;;3.23;;
21611;SDS011;47005;52.292;13.452;2023-05-10T06:04:01;4.15;;;2.40;;
21611;SDS011;47005;52.292;13.452;2023-05-10T06:06:27;6.32;;;3.15;;
21611;SDS011;47005;52.292;13.452;2023-05-10T06:08:53;4.20;;;2.50;;
21611;SDS011;47005;52.292;13.452;2023-05-10T06:11:19;5.88;;;3.25;;
21611;SDS011;47005;52.292;13.452;2023-05-10T06:13:46;6.40;;;2.60;;
21611;SDS011;47005;52.292;13.452;2023-05-10T06:16:12;5.50;;;3.20;;
21611;SDS011;47005;52.292;13.452;2023-05-10T06:18:38;6.30;;;2.70;;
21611;SDS011;47005;52.292;13.452;2023-05-10T06:21:04;5.43;;;2.28;;
21611;SDS011;47005;52.292;13.452;2023-05-10T06:23:29;5.95;;;3.38;;
21611;SDS011;47005;52.292;13.452;2023-05-10T06:25:55;4.60;;;2.80;;
21611;SDS011;47005;52.292;13.452;2023-05-10T06:28:21;5.30;;;3.25;;
21611;SDS011;47005;52.292;13.452;2023-05-10T06:30:46;4.82;;;3.03;;
21611;SDS011;47005;52.292;13.452;2023-05-10T06:33:12;4.32;;;2.10;;
21611;SDS011;47005;52.292;13.452;2023-05-10T06:35:38;4.22;;;2.33;;
21611;SDS011;47005;52.292;13.452;2023-05-10T06:38:04;3.85;;;2.13;;
21611;SDS011;47005;52.292;13.452;2023-05-10T06:40:30;13.80;;;2.72;;
21611;SDS011;47005;52.292;13.452;2023-05-10T06:42:55;3.38;;;2.47;;
21611;SDS011;47005;52.292;13.452;2023-05-10T06:45:21;4.53;;;2.60;;
21611;SDS011;47005;52.292;13.452;2023-05-10T06:47:47;6.70;;;2.42;;
21611;SDS011;47005;52.292;13.452;2023-05-10T06:50:12;6.25;;;2.70;;
21611;SDS011;47005;52.292;13.452;2023-05-10T06:52:38;4.95;;;2.42;;
21611;SDS011;47005;52.292;13.452;2023-05-10T06:55:04;6.28;;;2.50;;
21611;SDS011;47005;52.292;13.452;2023-05-10T06:57:30;10.02;;;2.78;;
21611;SDS011;47005;52.292;13.452;2023-05-10T06:59:56;4.55;;;2.65;;
21611;SDS011;47005;52.292;13.452;2023-05-10T07:02:22;4.07;;;2.35;;
21611;SDS011;47005;52.292;13.452;2023-05-10T07:04:48;3.58;;;2.30;;
21611;SDS011;47005;52.292;13.452;2023-05-10T07:07:14;3.60;;;2.33;;
21611;SDS011;47005;52.292;13.452;2023-05-10T07:09:39;4.63;;;2.55;;
21611;SDS011;47005;52.292;13.452;2023-05-10T07:12:05;9.57;;;2.22;;
21611;SDS011;47005;52.292;13.452;2023-05-10T07:14:31;4.13;;;2.60;;
21611;SDS011;47005;52.292;13.452;2023-05-10T07:16:57;8.88;;;2.30;;
21611;SDS011;47005;52.292;13.452;2023-05-10T07:19:22;4.30;;;2.55;;
21611;SDS011;47005;52.292;13.452;2023-05-10T07:21:48;5.75;;;2.35;;
21611;SDS011;47005;52.292;13.452;2023-05-10T07:24:15;4.88;;;2.10;;
21611;SDS011;47005;52.292;13.452;2023-05-10T07:26:40;4.43;;;2.20;;
21611;SDS011;47005;52.292;13.452;2023-05-10T07:29:06;3.42;;;2.30;;
21611;SDS011;47005;52.292;13.452;2023-05-10T07:31:31;7.38;;;2.78;;
21611;SDS011;47005;52.292;13.452;2023-05-10T07:33:57;5.70;;;2.38;;
21611;SDS011;47005;52.292;13.452;2023-05-10T07:36:23;6.60;;;2.13;;
21611;SDS011;47005;52.292;13.452;2023-05-10T07:38:49;5.15;;;2.25;;
21611;SDS011;47005;52.292;13.452;2023-05-10T07:41:15;4.80;;;1.90;;
21611;SDS011;47005;52.292;13.452;2023-05-10T07:43:40;3.28;;;1.73;;
21611;SDS011;47005;52.292;13.452;2023-05-10T07:46:06;4.90;;;1.95;;
21611;SDS011;47005;52.292;13.452;2023-05-10T07:48:32;5.82;;;2.47;;
21611;SDS011;47005;52.292;13.452;2023-05-10T07:50:58;4.97;;;2.25;;
21611;SDS011;47005;52.292;13.452;2023-05-10T07:53:24;4.75;;;2.13;;
21611;SDS011;47005;52.292;13.452;2023-05-10T07:55:52;3.55;;;2.03;;
21611;SDS011;47005;52.292;13.452;2023-05-10T07:58:21;9.13;;;2.55;;
21611;SDS011;47005;52.292;13.452;2023-05-10T08:00:47;5.00;;;1.67;;
21611;SDS011;47005;52.292;13.452;2023-05-10T08:03:14;4.88;;;1.92;;
21611;SDS011;47005;52.292;13.452;2023-05-10T08:05:40;4.22;;;2.25;;
21611;SDS011;47005;52.292;13.452;2023-05-10T08:08:06;3.50;;;2.08;;
21611;SDS011;47005;52.292;13.452;2023-05-10T08:10:31;3.97;;;2.53;;
21611;SDS011;47005;52.292;13.452;2023-05-10T08:12:57;4.10;;;2.40;;
21611;SDS011;47005;52.292;13.452;2023-05-10T08:15:23;3.25;;;2.00;;
21611;SDS011;47005;52.292;13.452;2023-05-10T08:17:50;3.55;;;2.28;;
21611;SDS011;47005;52.292;13.452;2023-05-10T08:20:16;4.78;;;2.33;;
21611;SDS011;47005;52.292;13.452;2023-05-10T08:22:44;4.50;;;2.20;;
21611;SDS011;47005;52.292;13.452;2023-05-10T08:25:10;7.68;;;2.40;;
21611;SDS011;47005;52.292;13.452;2023-05-10T08:27:36;3.65;;;2.17;;
21611;SDS011;47005;52.292;13.452;2023-05-10T08:30:02;9.30;;;2.65;;
21611;SDS011;47005;52.292;13.452;2023-05-10T08:32:27;3.42;;;1.95;;
21611;SDS011;47005;52.292;13.452;2023-05-10T08:34:53;6.72;;;2.10;;
21611;SDS011;47005;52.292;13.452;2023-05-10T08:37:19;3.42;;;2.28;;
21611;SDS011;47005;52.292;13.452;2023-05-10T08:39:45;9.25;;;2.50;;
21611;SDS011;47005;52.292;13.452;2023-05-10T08:42:12;7.75;;;2.63;;
21611;SDS011;47005;52.292;13.452;2023-05-10T08:44:44;6.70;;;2.45;;
21611;SDS011;47005;52.292;13.452;2023-05-10T08:47:13;4.93;;;2.55;;
21611;SDS011;47005;52.292;13.452;2023-05-10T08:49:43;8.65;;;2.53;;
21611;SDS011;47005;52.292;13.452;2023-05-10T08:52:12;5.35;;;2.75;;
21611;SDS011;47005;52.292;13.452;2023-05-10T08:54:40;7.03;;;2.22;;
21611;SDS011;47005;52.292;13.452;2023-05-10T08:57:06;4.55;;;2.40;;
21611;SDS011;47005;52.292;13.452;2023-05-10T08:59:32;4.72;;;2.67;;
21611;SDS011;47005;52.292;13.452;2023-05-10T09:01:58;5.18;;;2.72;;
21611;SDS011;47005;52.292;13.452;2023-05-10T09:04:24;3.58;;;2.20;;
21611;SDS011;47005;52.292;13.452;2023-05-10T09:06:50;5.85;;;2.55;;
21611;SDS011;47005;52.292;13.452;2023-05-10T09:09:17;4.78;;;2.40;;
21611;SDS011;47005;52.292;13.452;2023-05-10T09:11:43;3.38;;;2.03;;
21611;SDS011;47005;52.292;13.452;2023-05-10T09:14:10;6.65;;;2.58;;
21611;SDS011;47005;52.292;13.452;2023-05-10T09:16:37;3.30;;;2.30;;
21611;SDS011;47005;52.292;13.452;2023-05-10T09:19:03;3.15;;;2.05;;
21611;SDS011;47005;52.292;13.452;2023-05-10T09:21:29;2.92;;;2.20;;
21611;SDS011;47005;52.292;13.452;2023-05-10T09:23:56;3.88;;;2.33;;
21611;SDS011;47005;52.292;13.452;2023-05-10T09:26:22;6.75;;;2.03;;
21611;SDS011;47005;52.292;13.452;2023-05-10T09:31:17;6.68;;;2.35;;
21611;SDS011;47005;52.292;13.452;2023-05-10T09:33:43;4.18;;;2.30;;
21611;SDS011;47005;52.292;13.452;2023-05-10T09:36:11;5.80;;;2.33;;
21611;SDS011;47005;52.292;13.452;2023-05-10T09:38:49;7.93;;;2.30;;
21611;SDS011;47005;52.292;13.452;2023-05-10T09:41:23;4.47;;;2.33;;
21611;SDS011;47005;52.292;13.452;2023-05-10T09:43:50;4.93;;;2.25;;
21611;SDS011;47005;52.292;13.452;2023-05-10T09:46:20;3.47;;;2.00;;
21611;SDS011;47005;52.292;13.452;2023-05-10T09:48:47;3.70;;;1.73;;
21611;SDS011;47005;52.292;13.452;2023-05-10T09:51:20;3.50;;;2.25;;
21611;SDS011;47005;52.292;13.452;2023-05-10T09:56:38;3.08;;;2.10;;
21611;SDS011;47005;52.292;13.452;2023-05-10T09:59:06;4.15;;;2.30;;
21611;SDS011;47005;52.292;13.452;2023-05-10T10:01:33;7.75;;;2.42;;
21611;SDS011;47005;52.292;13.452;2023-05-10T10:04:02;8.57;;;2.20;;
21611;SDS011;47005;52.292;13.452;2023-05-10T10:06:37;4.22;;;2.30;;
21611;SDS011;47005;52.292;13.452;2023-05-10T10:09:04;9.68;;;2.45;;
21611;SDS011;47005;52.292;13.452;2023-05-10T10:11:31;7.25;;;2.65;;
21611;SDS011;47005;52.292;13.452;2023-05-10T10:13:58;5.50;;;2.10;;
21611;SDS011;47005;52.292;13.452;2023-05-10T10:16:24;4.65;;;2.28;;
21611;SDS011;47005;52.292;13.452;2023-05-10T10:18:51;3.03;;;2.15;;
21611;SDS011;47005;52.292;13.452;2023-05-10T10:21:17;5.82;;;1.85;;
21611;SDS011;47005;52.292;13.452;2023-05-10T10:23:44;6.28;;;1.90;;
21611;SDS011;47005;52.292;13.452;2023-05-10T10:26:10;4.13;;;2.38;;
21611;SDS011;47005;52.292;13.452;2023-05-10T10:31:32;3.95;;;2.03;;
21611;SDS011;47005;52.292;13.452;2023-05-10T10:34:10;3.53;;;1.98;;
21611;SDS011;47005;52.292;13.452;2023-05-10T10:36:43;3.20;;;2.17;;
21611;SDS011;47005;52.292;13.452;2023-05-10T10:39:11;4.50;;;2.47;;
21611;SDS011;47005;52.292;13.452;2023-05-10T10:41:40;3.45;;;2.50;;
21611;SDS011;47005;52.292;13.452;2023-05-10T10:47:21;4.07;;;2.08;;
21611;SDS011;47005;52.292;13.452;2023-05-10T10:55:17;3.28;;;2.30;;
21611;SDS011;47005;52.292;13.452;2023-05-10T11:00:26;5.15;;;2.30;;
21611;SDS011;47005;52.292;13.452;2023-05-10T11:03:04;4.40;;;2.38;;
21611;SDS011;47005;52.292;13.452;2023-05-10T11:08:45;6.88;;;2.20;;
21611;SDS011;47005;52.292;13.452;2023-05-10T11:16:09;3.63;;;2.55;;
21611;SDS011;47005;52.292;13.452;2023-05-10T11:19:01;4.47;;;2.17;;
21611;SDS011;47005;52.292;13.452;2023-05-10T11:21:29;6.70;;;2.20;;
21611;SDS011;47005;52.292;13.452;2023-05-10T11:23:56;4.82;;;2.38;;
21611;SDS011;47005;52.292;13.452;2023-05-10T11:26:33;3.22;;;2.20;;
21611;SDS011;47005;52.292;13.452;2023-05-10T11:29:00;2.60;;;1.80;;
21611;SDS011;47005;52.292;13.452;2023-05-10T11:31:27;4.32;;;2.50;;
21611;SDS011;47005;52.292;13.452;2023-05-10T11:33:54;5.55;;;2.75;;
21611;SDS011;47005;52.292;13.452;2023-05-10T11:36:22;3.45;;;2.33;;
21611;SDS011;47005;52.292;13.452;2023-05-10T11:38:50;6.35;;;2.67;;
21611;SDS011;47005;52.292;13.452;2023-05-10T11:41:17;3.78;;;2.15;;
21611;SDS011;47005;52.292;13.452;2023-05-10T11:43:44;3.63;;;2.05;;
21611;SDS011;47005;52.292;13.452;2023-05-10T11:46:11;5.13;;;2.40;;
21611;SDS011;47005;52.292;13.452;2023-05-10T11:48:38;4.25;;;2.22;;
21611;SDS011;47005;52.292;13.452;2023-05-10T11:51:04;8.38;;;2.80;;
21611;SDS011;47005;52.292;13.452;2023-05-10T11:53:32;3.60;;;2.42;;
21611;SDS011;47005;52.292;13.452;2023-05-10T11:56:10;4.40;;;2.38;;
21611;SDS011;47005;52.292;13.452;2023-05-10T11:58:37;4.05;;;1.65;;
21611;SDS011;47005;52.292;13.452;2023-05-10T12:01:06;4.80;;;2.17;;
21611;SDS011;47005;52.292;13.452;2023-05-10T12:03:33;3.65;;;2.05;;
21611;SDS011;47005;52.292;13.452;2023-05-10T12:06:00;4.35;;;2.45;;
21611;SDS011;47005;52.292;13.452;2023-05-10T12:08:27;4.07;;;2.35;;
21611;SDS011;47005;52.292;13.452;2023-05-10T12:11:03;3.20;;;1.75;;
21611;SDS011;47005;52.292;13.452;2023-05-10T12:13:30;6.20;;;2.40;;
21611;SDS011;47005;52.292;13.452;2023-05-10T12:15:59;3.17;;;2.20;;
21611;SDS011;47005;52.292;13.452;2023-05-10T12:18:41;6.63;;;2.00;;
21611;SDS011;47005;52.292;13.452;2023-05-10T12:21:08;4.90;;;2.58;;
21611;SDS011;47005;52.292;13.452;2023-05-10T12:23:40;4.80;;;2.38;;
21611;SDS011;47005;52.292;13.452;2023-05-10T12:26:08;3.55;;;2.38;;
21611;SDS011;47005;52.292;13.452;2023-05-10T12:28:37;3.55;;;2.45;;
21611;SDS011;47005;52.292;13.452;2023-05-10T12:31:05;3.35;;;2.30;;
21611;SDS011;47005;52.292;13.452;2023-05-10T12:33:38;2.60;;;2.00;;
21611;SDS011;47005;52.292;13.452;2023-05-10T12:36:08;3.55;;;2.63;;
21611;SDS011;47005;52.292;13.452;2023-05-10T12:38:36;5.00;;;2.33;;
21611;SDS011;47005;52.292;13.452;2023-05-10T12:41:11;3.38;;;1.98;;
21611;SDS011;47005;52.292;13.452;2023-05-10T12:43:38;5.20;;;3.10;;
21611;SDS011;47005;52.292;13.452;2023-05-10T12:46:23;6.00;;;2.53;;
21611;SDS011;47005;52.292;13.452;2023-05-10T12:48:50;3.65;;;2.33;;
21611;SDS011;47005;52.292;13.452;2023-05-10T12:51:19;6.00;;;2.40;;
21611;SDS011;47005;52.292;13.452;2023-05-10T12:53:47;3.47;;;2.00;;
21611;SDS011;47005;52.292;13.452;2023-05-10T12:56:12;3.33;;;2.40;;
21611;SDS011;47005;52.292;13.452;2023-05-10T12:58:38;8.07;;;2.90;;
21611;SDS011;47005;52.292;13.452;2023-05-10T13:01:04;3.00;;;2.15;;
21611;SDS011;47005;52.292;13.452;2023-05-10T13:03:30;4.88;;;2.42;;
21611;SDS011;47005;52.292;13.452;2023-05-10T13:05:56;8.25;;;2.42;;
21611;SDS011;47005;52.292;13.452;2023-05-10T13:08:21;5.03;;;2.20;;
21611;SDS011;47005;52.292;13.452;2023-05-10T13:10:47;3.28;;;2.60;;
21611;SDS011;47005;52.292;13.452;2023-05-10T13:13:13;3.20;;;2.35;;
21611;SDS011;47005;52.292;13.452;2023-05-10T13:15:40;7.10;;;2.72;;
21611;SDS011;47005;52.292;13.452;2023-05-10T13:18:05;5.25;;;2.25;;
21611;SDS011;47005;52.292;13.452;2023-05-10T13:20:31;3.45;;;2.03;;
21611;SDS011;47005;52.292;13.452;2023-05-10T13:22:56;2.75;;;1.88;;
21611;SDS011;47005;52.292;13.452;2023-05-10T13:25:22;6.25;;;2.30;;
21611;SDS011;47005;52.292;13.452;2023-05-10T13:27:48;2.92;;;2.00;;
21611;SDS011;47005;52.292;13.452;2023-05-10T13:30:14;2.40;;;1.75;;
21611;SDS011;47005;52.292;13.452;2023-05-10T13:32:41;3.33;;;2.17;;
21611;SDS011;47005;52.292;13.452;2023-05-10T13:35:07;2.78;;;1.98;;
21611;SDS011;47005;52.292;13.452;2023-05-10T13:37:33;7.93;;;2.08;;
21611;SDS011;47005;52.292;13.452;2023-05-10T13:40:02;5.00;;;2.25;;
21611;SDS011;47005;52.292;13.452;2023-05-10T13:42:29;5.05;;;2.50;;
21611;SDS011;47005;52.292;13.452;2023-05-10T13:44:55;3.65;;;2.05;;
21611;SDS011;47005;52.292;13.452;2023-05-10T13:47:21;5.60;;;2.50;;
21611;SDS011;47005;52.292;13.452;2023-05-10T13:49:47;4.43;;;2.05;;
21611;SDS011;47005;52.292;13.452;2023-05-10T13:52:12;5.00;;;2.47;;
21611;SDS011;47005;52.292;13.452;2023-05-10T13:54:38;3.50;;;2.20;;
21611;SDS011;47005;52.292;13.452;2023-05-10T13:57:04;3.38;;;2.40;;
21611;SDS011;47005;52.292;13.452;2023-05-10T13:59:30;3.28;;;1.90;;
21611;SDS011;47005;52.292;13.452;2023-05-10T14:01:59;3.22;;;2.05;;
21611;SDS011;47005;52.292;13.452;2023-05-10T14:04:27;3.13;;;1.60;;
21611;SDS011;47005;52.292;13.452;2023-05-10T14:06:54;4.22;;;2.08;;
21611;SDS011;47005;52.292;13.452;2023-05-10T14:09:20;5.40;;;2.22;;
21611;SDS011;47005;52.292;13.452;2023-05-10T14:11:45;3.80;;;2.30;;
21611;SDS011;47005;52.292;13.452;2023-05-10T14:14:11;6.25;;;2.40;;
21611;SDS011;47005;52.292;13.452;2023-05-10T14:16:42;3.75;;;2.35;;
21611;SDS011;47005;52.292;13.452;2023-05-10T14:19:09;3.10;;;2.03;;
21611;SDS011;47005;52.292;13.452;2023-05-10T14:21:36;4.32;;;2.40;;
21611;SDS011;47005;52.292;13.452;2023-05-10T14:24:02;4.20;;;1.48;;
21611;SDS011;47005;52.292;13.452;2023-05-10T14:26:27;4.05;;;2.03;;
21611;SDS011;47005;52.292;13.452;2023-05-10T14:28:53;3.92;;;2.60;;
21611;SDS011;47005;52.292;13.452;2023-05-10T14:31:19;5.07;;;2.28;;
21611;SDS011;47005;52.292;13.452;2023-05-10T14:33:45;7.55;;;2.60;;
21611;SDS011;47005;52.292;13.452;2023-05-10T14:36:11;4.97;;;2.35;;
21611;SDS011;47005;52.292;13.452;2023-05-10T14:38:38;2.60;;;1.70;;
21611;SDS011;47005;52.292;13.452;2023-05-10T14:41:04;3.75;;;2.63;;
21611;SDS011;47005;52.292;13.452;2023-05-10T14:43:29;3.08;;;2.35;;
21611;SDS011;47005;52.292;13.452;2023-05-10T14:45:55;5.75;;;2.30;;
21611;SDS011;47005;52.292;13.452;2023-05-10T14:48:21;4.78;;;2.25;;
21611;SDS011;47005;52.292;13.452;2023-05-10T14:50:46;3.53;;;2.28;;
21611;SDS011;47005;52.292;13.452;2023-05-10T14:53:12;3.55;;;2.45;;
21611;SDS011;47005;52.292;13.452;2023-05-10T14:55:38;3.60;;;2.28;;
21611;SDS011;47005;52.292;13.452;2023-05-10T14:58:04;4.57;;;2.42;;
21611;SDS011;47005;52.292;13.452;2023-05-10T15:00:29;3.05;;;2.15;;
21611;SDS011;47005;52.292;13.452;2023-05-10T15:02:55;3.47;;;2.13;;
21611;SDS011;47005;52.292;13.452;2023-05-10T15:05:21;6.40;;;2.55;;
21611;SDS011;47005;52.292;13.452;2023-05-10T15:07:47;3.40;;;2.55;;
21611;SDS011;47005;52.292;13.452;2023-05-10T15:10:12;3.42;;;2.25;;
21611;SDS011;47005;52.292;13.452;2023-05-10T15:12:39;4.75;;;3.03;;
21611;SDS011;47005;52.292;13.452;2023-05-10T15:15:05;3.60;;;2.05;;
21611;SDS011;47005;52.292;13.452;2023-05-10T15:17:33;2.63;;;1.83;;
21611;SDS011;47005;52.292;13.452;2023-05-10T15:19:59;7.00;;;2.05;;